createdAt,value
2022-09-28T00:01:18.181Z,99604.91
2022-09-28T00:06:24.489Z,99595.66
2022-09-28T00:11:29.948Z,99581.09
2022-09-28T00:16:40.645Z,99578.38
2022-09-28T00:21:48.275Z,99586.31
2022-09-28T00:26:52.350Z,99592.19
2022-09-28T00:32:00.059Z,99590.53
2022-09-28T00:37:05.709Z,99587.63
2022-09-28T00:42:19.406Z,99576.53
2022-09-28T00:47:52.212Z,99579.13
2022-09-28T00:53:00.571Z,99571.75
2022-09-28T00:58:08.795Z,99561.03
2022-09-28T01:03:14.312Z,99571.44
2022-09-28T01:08:38.685Z,99570.91
2022-09-28T01:13:43.354Z,99562.94
2022-09-28T01:19:10.743Z,99559.63
2022-09-28T01:24:41.329Z,99560.19
2022-09-28T01:29:48.355Z,99554.25
2022-09-28T01:34:58.104Z,99556.44
2022-09-28T01:40:06.861Z,99557.84
2022-09-28T01:45:34.044Z,99548.97
2022-09-28T01:50:39.733Z,99548.34
2022-09-28T01:55:48.738Z,99545.69
2022-09-28T02:00:59.459Z,99546.41
2022-09-28T02:06:06.661Z,99539.41
2022-09-28T02:11:20.629Z,99541.25
2022-09-28T02:16:33.611Z,99537.13
2022-09-28T02:22:08.836Z,99536.66
2022-09-28T02:27:14.948Z,99539.06
2022-09-28T02:32:21.771Z,99535.28
2022-09-28T02:37:23.590Z,99538.09
2022-09-28T02:42:56.285Z,99535.03
2022-09-28T02:48:11.235Z,99528.44
2022-09-28T02:53:34.250Z,99533.44
2022-09-28T02:58:50.879Z,99532.19
2022-09-28T03:04:10.580Z,99540.69
2022-09-28T03:09:23.315Z,99529.97
2022-09-28T03:14:25.195Z,99533.00
2022-09-28T03:19:33.779Z,99531.38
2022-09-28T03:24:39.541Z,99525.44
2022-09-28T03:29:42.705Z,99521.13
2022-09-28T03:34:57.866Z,99533.56
2022-09-28T03:40:05.115Z,99539.22
2022-09-28T03:45:08.292Z,99539.97
2022-09-28T03:50:12.247Z,99542.16
2022-09-28T03:55:17.907Z,99544.00
2022-09-28T04:00:19.880Z,99545.84
2022-09-28T04:05:24.012Z,99543.69
2022-09-28T04:10:26.243Z,99543.06
2022-09-28T04:15:40.354Z,99541.44
2022-09-28T04:20:46.199Z,99539.16
2022-09-28T04:25:55.119Z,99536.50
2022-09-28T04:30:57.310Z,99543.81
2022-09-28T04:35:59.138Z,99540.94
2022-09-28T04:41:01.092Z,99539.50
2022-09-28T04:46:11.831Z,99531.91
2022-09-28T04:51:20.934Z,99530.25
2022-09-28T04:56:22.601Z,99525.78
2022-09-28T05:01:26.672Z,99528.59
2022-09-28T05:06:35.860Z,99527.97
2022-09-28T05:11:42.856Z,99529.81
2022-09-28T05:16:53.781Z,99530.78
2022-09-28T05:22:04.106Z,99532.63
2022-09-28T05:27:11.020Z,99540.97
2022-09-28T05:32:18.031Z,99534.00
2022-09-28T05:37:36.429Z,99537.94
2022-09-28T05:42:41.639Z,99540.03
2022-09-28T05:47:50.406Z,99537.66
2022-09-28T05:53:05.720Z,99531.63
2022-09-28T05:58:08.123Z,99537.88
2022-09-28T06:03:13.708Z,99530.53
2022-09-28T06:08:15.733Z,99541.78
2022-09-28T06:13:21.734Z,99537.59
2022-09-28T06:18:29.157Z,99539.88
2022-09-28T06:23:49.636Z,99545.00
2022-09-28T06:28:56.025Z,99544.53
2022-09-28T06:34:01.812Z,99547.84
2022-09-28T06:39:06.263Z,99554.41
2022-09-28T06:44:12.446Z,99564.06
2022-09-28T06:49:22.946Z,99563.31
2022-09-28T06:54:50.476Z,99565.88
2022-09-28T07:00:05.788Z,99560.63
2022-09-28T07:05:09.536Z,99570.19
2022-09-28T07:10:34.285Z,99564.69
2022-09-28T07:15:43.340Z,99574.66
2022-09-28T07:20:54.155Z,99583.03
2022-09-28T07:25:58.218Z,99582.41
2022-09-28T07:31:11.915Z,99591.81
2022-09-28T07:36:35.270Z,99590.75
2022-09-28T07:41:39.682Z,99602.69
2022-09-28T07:46:44.282Z,99601.50
2022-09-28T07:51:56.518Z,99612.44
2022-09-28T07:57:04.030Z,99619.28
2022-09-28T08:02:20.200Z,99617.75
2022-09-28T08:07:26.648Z,99622.78
2022-09-28T08:12:40.783Z,99619.56
2022-09-28T08:17:59.097Z,99629.44
2022-09-28T08:23:08.297Z,99628.09
2022-09-28T08:28:15.994Z,99634.94
2022-09-28T08:33:23.900Z,99642.22
2022-09-28T08:38:46.414Z,99648.66
2022-09-28T08:44:24.156Z,99644.47
2022-09-28T08:49:47.453Z,99647.03
2022-09-28T08:55:36.881Z,99657.16
2022-09-28T09:00:47.328Z,99658.38
2022-09-28T09:05:52.485Z,99664.34
2022-09-28T09:11:32.036Z,99662.91
2022-09-28T09:17:00.008Z,99670.72
2022-09-28T09:22:40.060Z,99680.56
2022-09-28T09:28:17.759Z,99683.84
2022-09-28T09:33:28.321Z,99681.75
2022-09-28T09:38:58.149Z,99684.59
2022-09-28T09:44:44.877Z,99691.22
2022-09-28T09:50:25.297Z,99693.03
2022-09-28T09:55:45.736Z,99688.06
2022-09-28T10:01:14.999Z,99696.41
2022-09-28T10:06:55.818Z,99689.66
2022-09-28T10:12:04.052Z,99689.41
2022-09-28T10:17:06.418Z,99692.34
2022-09-28T10:22:28.064Z,99694.31
2022-09-28T10:27:40.673Z,99679.84
2022-09-28T10:32:47.114Z,99689.25
2022-09-28T10:37:59.330Z,99685.28
2022-09-28T10:43:34.644Z,99698.41
2022-09-28T10:49:05.041Z,99694.38
2022-09-28T10:54:17.800Z,99700.75
2022-09-28T10:59:30.820Z,99706.09
2022-09-28T11:05:00.077Z,99700.44
2022-09-28T11:10:09.474Z,99709.56
2022-09-28T11:15:30.526Z,99705.84
2022-09-28T11:20:38.882Z,99708.31
2022-09-28T11:25:45.249Z,99711.53
2022-09-28T11:30:52.108Z,99706.69
2022-09-28T11:36:18.792Z,99712.09
2022-09-28T11:41:42.258Z,99715.94
2022-09-28T11:47:11.069Z,99721.75
2022-09-28T11:52:29.221Z,99723.91
2022-09-28T11:57:39.864Z,99728.53
2022-09-28T12:02:49.825Z,99728.81
2022-09-28T12:08:04.666Z,99731.69
2022-09-28T12:13:31.505Z,99732.47
2022-09-28T12:19:02.462Z,99737.09
2022-09-28T12:24:16.480Z,99733.22
2022-09-28T12:29:31.216Z,99738.75
2022-09-28T12:34:47.561Z,99735.19
2022-09-28T12:40:12.647Z,99733.63
2022-09-28T12:45:53.099Z,99725.56
2022-09-28T12:51:36.104Z,99731.53
2022-09-28T12:57:06.021Z,99732.88
2022-09-28T13:02:48.714Z,99734.47
2022-09-28T13:08:04.131Z,99735.63
2022-09-28T13:13:19.144Z,99734.13
2022-09-28T13:18:37.464Z,99736.91
2022-09-28T13:23:44.285Z,99731.75
2022-09-28T13:28:51.453Z,99731.38
2022-09-28T13:33:53.785Z,99740.13
2022-09-28T13:39:00.828Z,99741.28
2022-09-28T13:44:16.781Z,99749.03
2022-09-28T13:49:25.806Z,99750.59
2022-09-28T13:55:19.095Z,99746.28
2022-09-28T14:00:41.065Z,99758.44
2022-09-28T14:05:47.382Z,99758.72
2022-09-28T14:11:25.316Z,99768.28
2022-09-28T14:16:34.903Z,99765.44
2022-09-28T14:21:56.440Z,99777.88
2022-09-28T14:27:01.212Z,99770.72
2022-09-28T14:32:10.725Z,99777.41
2022-09-28T14:37:39.738Z,99777.91
2022-09-28T14:43:24.484Z,99786.22
2022-09-28T14:49:03.455Z,99792.44
2022-09-28T14:54:06.579Z,99792.47
2022-09-28T14:59:30.342Z,99791.00
2022-09-28T15:04:43.432Z,99793.19
2022-09-28T15:09:54.624Z,99789.16
2022-09-28T15:15:02.524Z,99795.47
2022-09-28T15:20:08.874Z,99800.91
2022-09-28T15:25:16.455Z,99802.84
2022-09-28T15:30:25.626Z,99808.00
2022-09-28T15:35:30.084Z,99806.84
2022-09-28T15:40:37.931Z,99815.94
2022-09-28T15:45:44.198Z,99810.03
2022-09-28T15:51:11.059Z,99810.38
2022-09-28T15:56:15.547Z,99814.47
2022-09-28T16:01:36.667Z,99814.78
2022-09-28T16:06:41.147Z,99822.59
2022-09-28T16:11:47.177Z,99822.66
2022-09-28T16:16:57.410Z,99824.38
2022-09-28T16:22:00.099Z,99833.13
2022-09-28T16:27:42.815Z,99827.41
2022-09-28T16:33:01.671Z,99820.25
2022-09-28T16:38:12.672Z,99833.28
2022-09-28T16:43:30.217Z,99844.69
2022-09-28T16:48:37.081Z,99842.28
2022-09-28T16:53:57.233Z,99843.31
2022-09-28T16:59:13.955Z,99842.75
2022-09-28T17:04:15.776Z,99848.94
2022-09-28T17:09:20.023Z,99842.38
2022-09-28T17:14:23.711Z,99851.84
2022-09-28T17:19:30.974Z,99850.44
2022-09-28T17:24:35.232Z,99854.94
2022-09-28T17:29:36.983Z,99863.56
2022-09-28T17:34:38.744Z,99866.66
2022-09-28T17:39:40.541Z,99860.69
2022-09-28T17:44:45.575Z,99860.28
2022-09-28T17:49:48.585Z,99857.38
2022-09-28T17:54:50.395Z,99877.91
2022-09-28T17:59:54.543Z,99860.00
2022-09-28T18:04:56.533Z,99870.88
2022-09-28T18:09:59.430Z,99863.88
2022-09-28T18:15:07.576Z,99864.88
2022-09-28T18:20:12.765Z,99877.56
2022-09-28T18:25:17.179Z,99873.63
2022-09-28T18:30:21.347Z,99881.00
2022-09-28T18:35:31.904Z,99888.97
2022-09-28T18:40:37.997Z,99880.13
2022-09-28T18:45:39.990Z,99889.94
2022-09-28T18:57:47.542Z,99901.31
2022-09-28T19:03:00.072Z,99904.78
2022-09-28T19:08:12.012Z,99896.91
2022-09-28T19:13:23.339Z,99912.03
2022-09-28T19:18:35.176Z,99905.84
2022-09-28T19:23:49.727Z,99903.13
2022-09-28T19:28:56.389Z,99912.03
2022-09-28T19:33:58.923Z,99921.91
2022-09-28T19:39:04.322Z,99924.75
2022-09-28T19:44:46.512Z,99921.25
2022-09-28T19:51:02.209Z,99925.50
2022-09-28T19:56:05.796Z,99933.50
2022-09-28T20:01:15.484Z,99933.50
2022-09-28T20:06:24.542Z,99947.22
2022-09-28T20:11:26.432Z,99943.94
2022-09-28T20:16:49.431Z,99947.16
2022-09-28T20:21:58.635Z,99948.75
2022-09-28T20:27:02.911Z,99949.53
2022-09-28T20:32:04.776Z,99952.81
2022-09-28T20:37:08.596Z,99951.16
2022-09-28T20:42:10.331Z,99957.63
2022-09-28T20:47:14.259Z,99966.56
2022-09-28T20:52:19.366Z,99962.59
2022-09-28T20:57:21.373Z,99961.91
2022-09-28T21:02:25.445Z,99963.03
2022-09-28T21:07:27.186Z,99954.13
2022-09-28T21:12:29.499Z,99958.56
2022-09-28T21:17:32.020Z,99966.47
2022-09-28T21:22:36.239Z,99964.97
2022-09-28T21:27:38.418Z,99960.03
2022-09-28T21:32:41.195Z,99961.31
2022-09-28T21:37:42.913Z,99967.94
2022-09-28T21:42:53.145Z,99967.03
2022-09-28T21:47:54.865Z,99966.94
2022-09-28T21:52:57.054Z,99971.97
2022-09-28T21:58:00.964Z,99981.50
2022-09-28T22:03:06.564Z,99984.88
2022-09-28T22:08:11.397Z,99995.06
2022-09-28T22:13:13.079Z,99995.59
2022-09-28T22:18:14.884Z,99995.03
2022-09-28T22:23:21.818Z,100002.53
2022-09-28T22:28:26.102Z,99997.13
2022-09-28T22:33:29.034Z,100001.50
2022-09-28T22:38:35.245Z,100003.84
2022-09-28T22:43:37.914Z,100004.69
2022-09-28T22:48:53.894Z,100005.84
2022-09-28T22:53:56.730Z,100011.53
2022-09-28T22:58:58.474Z,100018.56
2022-09-28T23:04:02.554Z,100017.91
2022-09-28T23:09:06.914Z,100021.94
2022-09-28T23:14:13.128Z,100023.44
2022-09-28T23:19:19.625Z,100027.94
2022-09-28T23:24:22.528Z,100023.81
2022-09-28T23:29:24.236Z,100028.00
2022-09-28T23:34:30.844Z,100025.53
2022-09-28T23:39:39.924Z,100031.53
2022-09-28T23:44:43.812Z,100029.41
2022-09-28T23:49:47.956Z,100030.91
2022-09-28T23:54:51.668Z,100025.16
2022-09-28T23:59:58.650Z,100033.56
